Time;durP1;ratioP1;P1;durP2;ratioP2;P2;SDS_P1;SDS_P2;PMS_P1;PMS_P2;Temp;Humidity;BMP_temperature;BMP_pressure;BME280_temperature;BME280_humidity;BME280_pressure;Samples;Min_cycle;Max_cycle;Signal;HPM_P1;HPM_P2
2023/12/17 00:01:05;;;;;;;15.00;14.10;;;8.50;1.00;;;;;;4867322;29;20427;-43
2023/12/17 00:03:31;;;;;;;15.47;14.30;;;8.50;1.00;;;;;;4866994;29;20924;-43
2023/12/17 00:05:57;;;;;;;15.37;14.27;;;8.50;1.00;;;;;;4867772;29;20251;-43
2023/12/17 00:08:22;;;;;;;15.63;14.30;;;8.50;1.00;;;;;;4867634;29;20217;-42
2023/12/17 00:10:52;;;;;;;15.30;14.10;;;8.50;1.00;;;;;;4867390;29;20308;-43
2023/12/17 00:13:18;;;;;;;16.60;15.40;;;8.40;1.00;;;;;;4867305;29;21064;-42
2023/12/17 00:15:44;;;;;;;15.43;14.33;;;8.40;1.00;;;;;;4867100;29;20491;-43
2023/12/17 00:18:11;;;;;;;14.87;13.87;;;8.40;1.00;;;;;;4866888;29;20437;-42
2023/12/17 00:20:37;;;;;;;14.93;14.03;;;8.40;1.00;;;;;;4866833;29;20606;-43
2023/12/17 00:23:04;;;;;;;14.23;13.33;;;8.40;1.00;;;;;;4867084;29;20436;-44
2023/12/17 00:25:30;;;;;;;14.93;13.93;;;8.30;1.00;;;;;;4866858;29;20211;-43
2023/12/17 00:27:56;;;;;;;14.43;13.60;;;8.30;1.00;;;;;;4866902;29;21011;-43
2023/12/17 00:30:21;;;;;;;14.70;13.73;;;8.40;1.00;;;;;;4866562;29;20460;-44
2023/12/17 00:32:47;;;;;;;15.00;14.00;;;8.40;99.90;;;;;;4866619;29;20215;-43
2023/12/17 00:35:13;;;;;;;15.00;13.77;;;8.30;99.90;;;;;;4866558;29;20188;-46
2023/12/17 00:37:38;;;;;;;15.00;13.87;;;8.30;99.90;;;;;;4866632;29;20675;-44
2023/12/17 00:40:05;;;;;;;15.10;13.80;;;8.30;99.90;;;;;;4866712;29;20200;-42
2023/12/17 00:42:30;;;;;;;15.70;14.40;;;8.30;99.90;;;;;;4867026;29;20227;-42
2023/12/17 00:44:56;;;;;;;14.67;13.53;;;8.20;99.90;;;;;;4866193;29;20567;-44
2023/12/17 00:47:22;;;;;;;14.67;13.77;;;8.20;99.90;;;;;;4866871;29;20242;-42
2023/12/17 00:49:47;;;;;;;14.60;13.70;;;8.20;99.90;;;;;;4866263;29;20210;-44
2023/12/17 00:52:13;;;;;;;14.90;13.93;;;8.30;99.90;;;;;;4866615;29;20306;-42
2023/12/17 00:54:38;;;;;;;14.67;13.67;;;8.20;99.90;;;;;;4865962;29;21261;-43
2023/12/17 00:57:04;;;;;;;14.63;13.53;;;8.10;99.90;;;;;;4866670;29;20475;-43
2023/12/17 00:59:30;;;;;;;13.50;12.47;;;8.10;99.90;;;;;;4866496;29;20188;-42
2023/12/17 01:01:55;;;;;;;14.30;13.40;;;8.00;1.00;;;;;;4865835;29;20191;-42
2023/12/17 01:04:21;;;;;;;14.00;13.20;;;7.90;1.00;;;;;;4866507;29;20596;-42
2023/12/17 01:06:46;;;;;;;15.00;14.07;;;7.80;1.00;;;;;;4866028;29;20191;-42
2023/12/17 01:09:12;;;;;;;14.57;13.37;;;7.80;1.00;;;;;;4865486;29;20215;-43
2023/12/17 01:11:38;;;;;;;13.60;12.63;;;7.80;1.00;;;;;;4866466;29;20464;-42
2023/12/17 01:14:03;;;;;;;14.43;13.23;;;7.80;1.00;;;;;;4866350;29;20183;-41
2023/12/17 01:16:32;;;;;;;14.67;13.77;;;7.70;1.00;;;;;;4866109;29;20203;-44
2023/12/17 01:18:57;;;;;;;13.90;13.00;;;7.70;1.00;;;;;;4866018;29;20192;-41
2023/12/17 01:21:23;;;;;;;14.20;13.30;;;7.60;99.90;;;;;;4862983;29;20866;-42
2023/12/17 01:23:48;;;;;;;13.97;12.97;;;7.60;1.00;;;;;;4866112;29;20566;-42
2023/12/17 01:26:23;;;;;;;14.60;13.40;;;7.50;1.00;;;;;;4865943;29;20192;-42
2023/12/17 01:28:49;;;;;;;15.17;14.07;;;7.50;1.00;;;;;;4866578;29;20187;-45
2023/12/17 01:31:15;;;;;;;13.80;12.70;;;7.40;1.00;;;;;;4865129;29;20432;-43
2023/12/17 01:33:41;;;;;;;14.13;13.20;;;7.30;1.00;;;;;;4866531;29;20500;-48
2023/12/17 01:36:07;;;;;;;14.13;13.23;;;7.30;97.80;;;;;;4865333;29;20432;-51
2023/12/17 01:38:33;;;;;;;14.50;13.53;;;7.40;99.90;;;;;;4865833;29;20655;-53
2023/12/17 01:40:58;;;;;;;14.17;13.20;;;7.30;99.90;;;;;;4865780;29;20440;-51
2023/12/17 01:43:24;;;;;;;14.17;13.37;;;7.10;1.00;;;;;;4865797;29;20247;-50
2023/12/17 01:45:51;;;;;;;14.23;13.33;;;7.00;65.70;;;;;;4865805;29;20723;-50
2023/12/17 01:48:17;;;;;;;14.37;13.57;;;7.00;1.00;;;;;;4866063;29;20207;-51
2023/12/17 01:50:43;;;;;;;13.77;12.87;;;6.90;1.00;;;;;;4869298;29;20436;-50
2023/12/17 01:53:08;;;;;;;14.70;13.37;;;6.80;99.90;;;;;;4866048;29;20246;-51
2023/12/17 01:55:34;;;;;;;14.80;13.80;;;6.80;1.00;;;;;;4865452;29;20691;-50
2023/12/17 01:58:02;;;;;;;13.90;13.00;;;6.70;99.90;;;;;;4865900;29;20192;-50
2023/12/17 02:00:28;;;;;;;14.03;12.93;;;6.60;1.00;;;;;;4866215;29;20424;-49
2023/12/17 02:02:54;;;;;;;14.33;13.23;;;6.50;1.00;;;;;;4866023;29;20428;-53
2023/12/17 02:05:19;;;;;;;14.90;13.70;;;6.50;1.00;;;;;;4865381;29;20202;-51
2023/12/17 02:07:45;;;;;;;14.03;13.20;;;6.40;1.00;;;;;;4866001;29;20188;-53
2023/12/17 02:10:11;;;;;;;14.80;13.63;;;6.40;73.10;;;;;;4865458;29;20188;-49
2023/12/17 02:12:36;;;;;;;14.30;13.40;;;6.30;99.90;;;;;;4865852;29;20212;-53
2023/12/17 02:15:02;;;;;;;14.33;13.40;;;6.20;99.90;;;;;;4865289;29;20214;-53
2023/12/17 02:17:30;;;;;;;15.37;14.37;;;6.10;99.90;;;;;;4865984;29;20188;-51
2023/12/17 02:19:56;;;;;;;14.52;13.50;;;6.10;99.90;;;;;;4865833;29;20192;-49
2023/12/17 02:22:25;;;;;;;14.38;13.38;;;6.10;99.90;;;;;;4867483;29;20184;-42
2023/12/17 02:24:54;;;;;;;14.23;13.32;;;6.00;1.00;;;;;;4869001;29;20243;-47
2023/12/17 02:27:24;;;;;;;15.10;13.98;;;5.90;1.00;;;;;;4869270;29;20188;-42
2023/12/17 02:29:51;;;;;;;15.38;14.38;;;5.90;1.00;;;;;;4868953;29;20981;-42
2023/12/17 02:32:18;;;;;;;14.00;13.10;;;5.90;1.00;;;;;;4868503;29;20267;-44
2023/12/17 02:34:43;;;;;;;15.10;14.10;;;5.80;1.00;;;;;;4869209;29;20220;-42
2023/12/17 02:37:09;;;;;;;15.57;14.37;;;5.70;1.00;;;;;;4869171;29;20583;-50
2023/12/17 02:39:35;;;;;;;15.87;14.40;;;5.70;1.00;;;;;;4877330;29;20440;-49
2023/12/17 02:42:01;;;;;;;15.20;14.10;;;5.60;1.00;;;;;;4868855;29;20291;-49
2023/12/17 02:44:26;;;;;;;14.90;13.90;;;5.50;1.00;;;;;;4868858;29;20291;-51
2023/12/17 02:46:53;;;;;;;14.50;13.50;;;5.50;1.00;;;;;;4868653;29;20219;-46
2023/12/17 02:49:19;;;;;;;14.23;13.13;;;5.50;1.00;;;;;;4868581;29;20439;-50
2023/12/17 02:51:44;;;;;;;14.90;13.90;;;5.50;1.00;;;;;;4868623;29;20211;-50
2023/12/17 02:54:10;;;;;;;15.20;14.10;;;5.50;1.00;;;;;;4868432;29;20267;-51
2023/12/17 02:56:39;;;;;;;15.20;14.07;;;5.40;1.00;;;;;;4868588;29;20192;-49
2023/12/17 02:59:09;;;;;;;14.40;13.25;;;5.40;1.00;;;;;;4868644;29;20420;-50
2023/12/17 03:01:35;;;;;;;13.88;13.07;;;5.40;1.00;;;;;;4871360;29;20957;-48
2023/12/17 03:04:03;;;;;;;14.57;13.67;;;5.30;1.00;;;;;;4868653;29;20199;-51
2023/12/17 03:06:29;;;;;;;14.30;13.10;;;5.30;1.00;;;;;;4868247;29;20535;-48
2023/12/17 03:08:54;;;;;;;15.23;13.80;;;5.20;1.00;;;;;;4868274;29;20242;-46
2023/12/17 03:11:20;;;;;;;14.40;13.20;;;5.10;1.00;;;;;;4868152;29;20224;-51
2023/12/17 03:16:53;;;;;;;14.43;13.60;;;5.10;1.00;;;;;;4867835;29;20559;-53
2023/12/17 03:19:19;;;;;;;15.07;13.87;;;5.00;1.00;;;;;;4868495;29;20274;-49
2023/12/17 03:21:45;;;;;;;14.70;13.43;;;5.00;1.00;;;;;;4861895;29;20184;-49
2023/12/17 03:24:10;;;;;;;14.87;13.77;;;4.90;3.30;;;;;;4868390;29;20263;-48
2023/12/17 03:26:36;;;;;;;14.57;13.17;;;4.90;9.80;;;;;;4868190;29;20187;-50
2023/12/17 03:29:02;;;;;;;14.40;13.40;;;4.90;16.90;;;;;;4867936;29;20209;-49
2023/12/17 03:31:28;;;;;;;14.30;13.40;;;4.80;19.40;;;;;;4867727;29;20204;-51
2023/12/17 03:33:53;;;;;;;14.47;13.20;;;4.80;22.10;;;;;;4867146;29;20214;-51
2023/12/17 03:36:19;;;;;;;14.10;13.20;;;4.70;24.30;;;;;;4868066;29;20190;-49
2023/12/17 03:38:46;;;;;;;14.70;13.40;;;4.70;37.40;;;;;;4867968;29;20497;-50
2023/12/17 03:41:28;;;;;;;14.35;13.40;;;4.70;45.20;;;;;;4867825;29;20798;-48
2023/12/17 03:43:56;;;;;;;14.57;13.48;;;4.60;50.00;;;;;;4865598;29;20227;-53
2023/12/17 03:46:25;;;;;;;14.40;13.20;;;4.60;73.90;;;;;;4867727;29;20311;-53
2023/12/17 03:48:51;;;;;;;15.55;14.40;;;4.60;92.00;;;;;;4867700;29;20262;-49
2023/12/17 03:51:17;;;;;;;14.40;13.15;;;4.50;98.50;;;;;;4867576;29;20191;-47
2023/12/17 03:53:43;;;;;;;15.30;14.10;;;4.50;99.90;;;;;;4867541;29;20514;-50
2023/12/17 03:56:13;;;;;;;14.93;13.83;;;4.50;99.90;;;;;;4867651;29;20196;-50
2023/12/17 03:58:39;;;;;;;13.68;12.77;;;4.40;99.90;;;;;;4867212;29;20789;-51
2023/12/17 04:01:06;;;;;;;14.38;13.20;;;4.40;99.90;;;;;;4866100;29;20188;-47
2023/12/17 04:03:32;;;;;;;15.80;14.30;;;4.30;99.90;;;;;;4867363;29;21007;-50
2023/12/17 04:05:59;;;;;;;13.90;13.00;;;4.30;99.90;;;;;;4867460;29;20175;-49
2023/12/17 04:08:25;;;;;;;14.13;13.13;;;4.30;99.90;;;;;;4867314;29;20512;-51
2023/12/17 04:10:51;;;;;;;14.67;13.57;;;4.30;99.90;;;;;;4867549;29;20555;-50
2023/12/17 04:13:17;;;;;;;15.32;13.90;;;4.30;99.90;;;;;;4866731;29;20472;-49
2023/12/17 04:15:43;;;;;;;13.97;13.07;;;4.20;99.90;;;;;;4867403;29;20180;-52
2023/12/17 04:18:08;;;;;;;15.07;13.80;;;4.20;99.90;;;;;;4867032;29;20267;-52
2023/12/17 04:20:34;;;;;;;13.93;12.93;;;4.20;99.90;;;;;;4867471;29;20210;-49
2023/12/17 04:22:59;;;;;;;14.40;13.30;;;4.20;99.90;;;;;;4866982;29;20218;-50
2023/12/17 04:25:25;;;;;;;14.37;13.33;;;4.20;99.90;;;;;;4867211;29;20191;-49
2023/12/17 04:27:51;;;;;;;15.20;13.93;;;4.20;99.90;;;;;;4866878;29;20548;-49
2023/12/17 04:30:17;;;;;;;13.90;12.90;;;4.10;99.90;;;;;;4866951;29;20196;-46
2023/12/17 04:32:42;;;;;;;14.83;13.70;;;4.10;99.90;;;;;;4866725;29;20468;-50
2023/12/17 04:35:08;;;;;;;13.80;12.80;;;4.10;99.90;;;;;;4866851;29;20509;-51
2023/12/17 04:37:34;;;;;;;13.63;12.63;;;4.10;99.90;;;;;;4867127;29;20658;-50
2023/12/17 04:40:00;;;;;;;13.67;12.80;;;4.10;99.90;;;;;;4867167;29;20436;-54
2023/12/17 04:42:26;;;;;;;14.07;13.17;;;4.00;99.90;;;;;;4866643;29;20571;-46
2023/12/17 04:44:52;;;;;;;14.30;13.30;;;4.00;99.90;;;;;;4866055;29;20331;-50
2023/12/17 04:47:17;;;;;;;14.40;13.13;;;4.00;99.90;;;;;;4866785;29;20270;-48
2023/12/17 04:49:43;;;;;;;14.00;13.10;;;4.00;99.90;;;;;;4874675;29;20650;-51
2023/12/17 04:52:08;;;;;;;14.23;13.23;;;3.90;99.90;;;;;;4866804;29;20216;-48
2023/12/17 04:54:34;;;;;;;14.00;13.00;;;3.80;99.90;;;;;;4866821;29;20763;-49
2023/12/17 04:57:00;;;;;;;13.40;12.60;;;3.80;99.90;;;;;;4866449;29;20188;-53
2023/12/17 04:59:26;;;;;;;14.60;13.37;;;3.80;99.90;;;;;;4866461;29;20390;-47
2023/12/17 05:01:51;;;;;;;14.35;13.15;;;3.80;99.90;;;;;;4866396;29;20200;-52
2023/12/17 05:04:17;;;;;;;13.50;12.47;;;3.80;99.90;;;;;;4866469;29;20186;-50
2023/12/17 05:06:43;;;;;;;14.60;13.20;;;3.70;99.90;;;;;;4866607;29;20227;-49
2023/12/17 05:09:09;;;;;;;13.60;12.60;;;3.70;99.90;;;;;;4866554;29;20222;-52
2023/12/17 05:11:35;;;;;;;13.85;12.95;;;3.70;99.90;;;;;;4865929;29;20482;-49
2023/12/17 05:14:00;;;;;;;13.73;12.83;;;3.70;99.90;;;;;;4866336;29;20555;-50
2023/12/17 05:16:26;;;;;;;14.33;13.23;;;3.70;99.90;;;;;;4866358;29;20244;-51
2023/12/17 05:18:52;;;;;;;13.13;12.13;;;3.70;99.90;;;;;;4866371;29;20199;-50
2023/12/17 05:21:17;;;;;;;13.43;12.43;;;3.70;99.90;;;;;;4866983;29;20799;-52
2023/12/17 05:23:43;;;;;;;13.90;12.90;;;3.70;99.90;;;;;;4866227;29;20194;-51
2023/12/17 05:26:09;;;;;;;13.40;12.40;;;3.60;99.90;;;;;;4866126;29;20688;-51
2023/12/17 05:28:37;;;;;;;14.07;13.18;;;3.60;99.90;;;;;;4866116;29;20188;-49
2023/12/17 05:31:03;;;;;;;16.35;13.60;;;3.60;99.90;;;;;;4866194;29;20342;-42
2023/12/17 05:33:29;;;;;;;14.85;13.40;;;3.50;99.90;;;;;;4866101;29;20639;-43
2023/12/17 05:35:55;;;;;;;13.47;12.47;;;3.50;99.90;;;;;;4866139;29;20270;-43
2023/12/17 05:38:21;;;;;;;14.30;13.20;;;3.50;99.90;;;;;;4866069;29;20187;-42
2023/12/17 05:40:47;;;;;;;14.32;13.10;;;3.50;99.90;;;;;;4865968;29;20586;-41
2023/12/17 05:43:12;;;;;;;14.03;12.77;;;3.40;99.90;;;;;;4865865;29;20337;-43
2023/12/17 05:45:38;;;;;;;12.60;11.60;;;3.40;99.90;;;;;;4866435;29;20434;-45
2023/12/17 05:48:04;;;;;;;13.83;12.83;;;3.40;99.90;;;;;;4865923;29;20199;-41
2023/12/17 05:50:29;;;;;;;13.50;12.50;;;3.40;99.90;;;;;;4865975;29;20188;-52
2023/12/17 05:52:55;;;;;;;13.23;12.23;;;3.30;99.90;;;;;;4865759;29;20259;-50
2023/12/17 05:55:20;;;;;;;14.13;12.80;;;3.30;99.90;;;;;;4866764;29;20271;-47
2023/12/17 05:57:49;;;;;;;13.33;12.43;;;3.30;99.90;;;;;;4869814;29;20654;-51
2023/12/17 06:00:16;;;;;;;14.38;13.05;;;3.30;99.90;;;;;;4869687;29;20218;-51
2023/12/17 06:02:42;;;;;;;13.85;12.90;;;3.30;99.90;;;;;;4869340;29;20565;-48
2023/12/17 06:05:08;;;;;;;14.90;13.53;;;3.30;99.90;;;;;;4869680;29;20195;-48
2023/12/17 06:07:33;;;;;;;14.40;13.20;;;3.20;99.90;;;;;;4869666;29;20593;-48
2023/12/17 06:09:59;;;;;;;13.40;12.30;;;3.20;99.90;;;;;;4869368;29;20305;-52
2023/12/17 06:12:25;;;;;;;14.40;13.27;;;3.20;99.90;;;;;;4869580;29;20222;-48
2023/12/17 06:14:50;;;;;;;14.43;13.40;;;3.20;99.90;;;;;;4869621;29;20186;-51
2023/12/17 06:17:16;;;;;;;14.10;13.10;;;3.20;99.90;;;;;;4869597;29;20183;-49
2023/12/17 06:19:42;;;;;;;15.53;13.93;;;3.20;99.90;;;;;;4869092;29;20665;-49
2023/12/17 06:22:11;;;;;;;15.20;14.02;;;3.20;99.90;;;;;;4869659;29;20194;-50
2023/12/17 06:24:37;;;;;;;14.80;13.40;;;3.20;99.90;;;;;;4869398;29;20175;-48
2023/12/17 06:27:03;;;;;;;14.77;13.37;;;3.20;99.90;;;;;;4869168;29;20245;-51
2023/12/17 06:29:28;;;;;;;16.93;15.13;;;3.20;99.90;;;;;;4869219;29;20228;-52
2023/12/17 06:31:54;;;;;;;15.30;13.70;;;3.10;99.90;;;;;;4868751;29;20565;-49
2023/12/17 06:34:20;;;;;;;14.53;13.10;;;3.10;99.90;;;;;;4868702;29;20190;-50
2023/12/17 06:36:45;;;;;;;16.27;14.67;;;3.10;99.90;;;;;;4869267;29;20540;-49
2023/12/17 06:39:11;;;;;;;15.50;14.10;;;3.10;99.90;;;;;;4868750;29;20285;-48
2023/12/17 06:41:44;;;;;;;15.37;13.90;;;3.10;99.90;;;;;;4869359;29;20205;-48
2023/12/17 06:44:09;;;;;;;15.07;13.90;;;3.10;99.90;;;;;;4868795;29;20612;-48
2023/12/17 06:46:35;;;;;;;15.67;14.37;;;3.10;99.90;;;;;;4869231;29;20195;-49
2023/12/17 06:49:00;;;;;;;16.60;15.10;;;3.00;99.90;;;;;;4868789;29;20198;-52
2023/12/17 06:51:26;;;;;;;14.63;13.30;;;3.00;99.90;;;;;;4864541;29;20685;-51
2023/12/17 06:53:51;;;;;;;14.13;12.90;;;3.00;99.90;;;;;;4864514;29;20577;-50
2023/12/17 06:56:17;;;;;;;15.13;13.83;;;2.90;99.90;;;;;;4868291;29;20199;-51
2023/12/17 06:58:43;;;;;;;15.23;13.93;;;2.90;99.90;;;;;;4867817;29;20218;-52
2023/12/17 07:01:08;;;;;;;15.40;14.00;;;2.90;99.90;;;;;;4867781;29;20242;-51
2023/12/17 07:03:34;;;;;;;16.03;14.70;;;2.90;99.90;;;;;;4868279;29;20198;-53
2023/12/17 07:05:59;;;;;;;14.83;13.40;;;2.80;99.90;;;;;;4868551;29;20832;-52
2023/12/17 07:08:25;;;;;;;19.30;15.03;;;2.80;99.90;;;;;;4867599;29;20278;-49
2023/12/17 07:10:51;;;;;;;16.03;14.43;;;2.80;99.90;;;;;;4868947;29;20666;-51
2023/12/17 07:13:16;;;;;;;16.60;14.97;;;2.80;99.90;;;;;;4868591;29;20268;-48
2023/12/17 07:15:43;;;;;;;16.23;13.87;;;2.80;99.90;;;;;;4868335;29;20218;-51
2023/12/17 07:18:09;;;;;;;15.57;13.98;;;2.80;99.90;;;;;;4868383;29;20458;-50
2023/12/17 07:20:35;;;;;;;15.15;13.75;;;2.80;99.90;;;;;;4868140;29;20266;-49
2023/12/17 07:23:00;;;;;;;17.43;14.87;;;2.80;99.90;;;;;;4868343;29;20193;-49
2023/12/17 07:25:26;;;;;;;16.40;15.00;;;2.80;99.90;;;;;;4868191;29;20286;-48
2023/12/17 07:27:53;;;;;;;15.43;13.93;;;2.70;99.90;;;;;;4868327;29;20201;-52
2023/12/17 07:30:19;;;;;;;17.50;15.80;;;2.70;99.90;;;;;;4867756;29;20186;-53
2023/12/17 07:32:44;;;;;;;16.27;14.77;;;2.70;99.90;;;;;;4868470;29;20228;-51
2023/12/17 07:35:10;;;;;;;15.63;14.27;;;2.80;99.90;;;;;;4882172;29;20233;-51
2023/12/17 07:37:36;;;;;;;16.40;15.00;;;2.70;99.90;;;;;;4868022;29;20196;-49
2023/12/17 07:40:01;;;;;;;15.60;14.30;;;2.80;99.90;;;;;;4867787;29;20191;-49
2023/12/17 07:42:27;;;;;;;15.53;14.23;;;2.80;99.90;;;;;;4867786;29;20514;-51
2023/12/17 07:44:53;;;;;;;16.60;15.00;;;2.80;99.90;;;;;;4867665;29;20702;-50
2023/12/17 07:47:18;;;;;;;16.17;14.77;;;2.80;99.90;;;;;;4867737;29;20439;-49
2023/12/17 07:49:44;;;;;;;16.03;14.57;;;2.80;99.90;;;;;;4867486;29;20199;-53
2023/12/17 07:52:11;;;;;;;15.70;14.50;;;2.90;99.90;;;;;;4872367;29;20266;-52
2023/12/17 07:54:37;;;;;;;16.42;15.00;;;2.90;99.90;;;;;;4867742;29;20187;-49
2023/12/17 07:57:03;;;;;;;18.93;16.50;;;3.00;99.90;;;;;;4867770;29;20193;-50
2023/12/17 07:59:28;;;;;;;18.23;16.60;;;3.00;99.90;;;;;;4867823;29;20195;-53
2023/12/17 08:01:54;;;;;;;18.07;16.47;;;3.10;99.90;;;;;;4867163;29;20613;-47
2023/12/17 08:04:20;;;;;;;17.13;15.20;;;3.20;99.90;;;;;;4867520;29;20197;-51
2023/12/17 08:06:45;;;;;;;16.00;14.60;;;3.40;99.90;;;;;;4867318;29;20255;-50
2023/12/17 08:09:11;;;;;;;17.50;15.60;;;3.50;99.90;;;;;;4867595;29;20202;-49
2023/12/17 08:11:37;;;;;;;15.90;14.50;;;3.60;99.90;;;;;;4867188;29;20627;-53
2023/12/17 08:14:03;;;;;;;16.10;14.60;;;3.90;99.90;;;;;;4867063;29;20590;-50
2023/12/17 08:16:30;;;;;;;15.70;14.27;;;4.10;99.90;;;;;;4867524;29;20659;-43
2023/12/17 08:18:56;;;;;;;17.15;15.55;;;4.30;99.90;;;;;;4867222;29;20565;-42
2023/12/17 08:21:21;;;;;;;16.63;14.90;;;4.60;99.90;;;;;;4866281;29;20184;-45
2023/12/17 08:23:47;;;;;;;17.03;15.53;;;4.90;99.90;;;;;;4867422;29;20191;-44
2023/12/17 08:26:13;;;;;;;18.67;16.87;;;5.20;99.90;;;;;;4866373;29;20635;-43
2023/12/17 08:28:38;;;;;;;19.23;17.33;;;5.40;99.90;;;;;;4867203;29;20219;-43
2023/12/17 08:31:09;;;;;;;22.60;18.73;;;5.80;99.90;;;;;;4867110;29;20244;-43
2023/12/17 08:33:36;;;;;;;20.37;18.53;;;6.00;99.90;;;;;;4866612;29;20220;-43
2023/12/17 08:36:01;;;;;;;20.10;18.20;;;6.50;99.90;;;;;;4866861;29;20429;-43
2023/12/17 08:38:27;;;;;;;19.03;17.33;;;6.70;44.10;;;;;;4867158;29;20795;-47
2023/12/17 08:40:54;;;;;;;19.73;17.80;;;7.00;11.50;;;;;;4880158;29;20335;-43
2023/12/17 08:43:20;;;;;;;20.33;18.50;;;7.20;1.00;;;;;;4866975;29;20231;-43
2023/12/17 08:45:46;;;;;;;19.50;17.90;;;7.30;1.00;;;;;;4866598;29;20945;-43
2023/12/17 08:48:11;;;;;;;19.23;17.53;;;7.50;1.00;;;;;;4866703;29;20642;-47
2023/12/17 08:50:37;;;;;;;18.70;17.20;;;7.90;1.00;;;;;;4866535;29;20270;-45
2023/12/17 08:53:02;;;;;;;17.57;16.27;;;8.10;1.00;;;;;;4866920;29;20742;-44
2023/12/17 08:55:28;;;;;;;18.77;17.17;;;8.20;1.00;;;;;;4866884;29;20188;-47
2023/12/17 08:57:54;;;;;;;20.37;18.33;;;8.50;1.00;;;;;;4866303;29;20271;-43
2023/12/17 09:00:19;;;;;;;17.93;16.23;;;8.80;1.00;;;;;;4866344;29;20775;-44
2023/12/17 09:02:45;;;;;;;18.37;16.57;;;9.10;1.00;;;;;;4866408;29;20260;-45
2023/12/17 09:05:12;;;;;;;17.37;15.97;;;9.50;99.90;;;;;;4862113;29;20445;-46
2023/12/17 09:07:37;;;;;;;16.50;15.30;;;9.80;18.90;;;;;;4866859;29;20192;-43
2023/12/17 09:10:03;;;;;;;17.77;16.37;;;10.00;1.00;;;;;;4867110;29;20843;-45
2023/12/17 09:12:29;;;;;;;16.83;15.53;;;10.10;1.00;;;;;;4866422;29;21004;-45
2023/12/17 09:14:54;;;;;;;17.30;16.00;;;10.10;1.00;;;;;;4866798;29;20245;-44
2023/12/17 09:17:20;;;;;;;17.57;16.07;;;10.30;99.90;;;;;;4866315;29;20190;-48
2023/12/17 09:19:47;;;;;;;19.23;17.67;;;10.50;99.90;;;;;;4866356;29;20265;-45
2023/12/17 09:22:13;;;;;;;18.17;16.67;;;10.80;99.90;;;;;;4866359;29;20183;-45
2023/12/17 09:24:39;;;;;;;18.37;16.87;;;10.70;96.70;;;;;;4866441;29;20803;-45
2023/12/17 09:27:04;;;;;;;17.80;16.40;;;10.60;99.90;;;;;;4866406;29;20274;-43
2023/12/17 09:29:30;;;;;;;18.37;16.87;;;10.70;99.90;;;;;;4865987;29;20468;-44
2023/12/17 09:31:56;;;;;;;18.80;17.40;;;10.90;94.00;;;;;;4865617;29;20758;-45
2023/12/17 09:34:21;;;;;;;17.80;16.50;;;11.00;28.80;;;;;;4861732;29;20235;-46
2023/12/17 09:36:47;;;;;;;18.07;16.67;;;11.20;5.40;;;;;;4860399;29;20699;-43
2023/12/17 09:39:12;;;;;;;16.67;15.43;;;11.30;1.00;;;;;;4866019;29;20654;-43
2023/12/17 09:41:40;;;;;;;16.70;15.40;;;11.40;1.00;;;;;;4865683;29;20191;-45
2023/12/17 09:44:06;;;;;;;17.97;16.40;;;11.50;1.00;;;;;;4865673;29;20240;-43
2023/12/17 09:46:32;;;;;;;17.03;15.63;;;11.50;1.00;;;;;;4865831;29;20436;-43
2023/12/17 09:48:59;;;;;;;17.00;15.57;;;11.50;1.00;;;;;;4865724;29;20425;-43
2023/12/17 09:51:27;;;;;;;16.93;15.20;;;11.50;1.00;;;;;;4865529;29;20193;-45
2023/12/17 09:53:54;;;;;;;16.23;15.10;;;11.70;1.00;;;;;;4865506;29;20435;-43
2023/12/17 09:56:20;;;;;;;16.60;15.30;;;12.10;1.00;;;;;;4865674;29;20431;-44
2023/12/17 09:58:46;;;;;;;16.63;15.30;;;12.00;1.00;;;;;;4865647;29;20433;-43
2023/12/17 10:01:11;;;;;;;16.37;15.07;;;12.20;1.00;;;;;;4865813;29;20275;-43
2023/12/17 10:03:37;;;;;;;15.77;14.60;;;12.50;1.00;;;;;;4865697;29;20439;-43
2023/12/17 10:06:03;;;;;;;14.83;13.73;;;12.50;1.00;;;;;;4865788;29;20184;-47
2023/12/17 10:08:30;;;;;;;14.53;13.53;;;12.50;1.00;;;;;;4865664;29;20196;-45
2023/12/17 10:10:56;;;;;;;15.50;14.30;;;12.70;1.00;;;;;;4863350;29;20448;-44
2023/12/17 10:13:23;;;;;;;16.40;15.20;;;12.80;1.00;;;;;;4865413;29;20471;-45
2023/12/17 10:15:52;;;;;;;15.97;14.77;;;12.80;1.00;;;;;;4864662;29;21413;-46
2023/12/17 10:18:19;;;;;;;15.97;14.87;;;13.00;1.00;;;;;;4862258;29;20807;-48
2023/12/17 10:20:45;;;;;;;16.40;15.30;;;13.20;1.00;;;;;;4864547;29;20477;-45
2023/12/17 10:23:12;;;;;;;16.97;15.87;;;13.20;1.00;;;;;;4864982;29;20429;-45
2023/12/17 10:25:41;;;;;;;16.13;14.93;;;13.30;1.00;;;;;;4865515;29;20420;-44
2023/12/17 10:28:10;;;;;;;16.00;14.87;;;13.70;1.00;;;;;;4864124;29;20943;-43
2023/12/17 10:30:36;;;;;;;16.27;14.90;;;13.90;1.00;;;;;;4863487;29;20467;-47
2023/12/17 10:33:03;;;;;;;14.47;13.57;;;14.00;1.00;;;;;;4856712;29;20468;-44
2023/12/17 10:35:33;;;;;;;15.67;14.40;;;14.10;1.00;;;;;;4861171;29;20520;-44
2023/12/17 10:38:05;;;;;;;16.10;15.00;;;14.20;1.00;;;;;;4861369;29;20799;-44
2023/12/17 10:40:32;;;;;;;15.43;14.43;;;14.30;1.00;;;;;;4863998;29;20460;-49
2023/12/17 10:42:59;;;;;;;15.60;14.50;;;14.20;1.00;;;;;;4866800;29;20464;-44
2023/12/17 10:45:25;;;;;;;16.83;15.50;;;14.40;1.00;;;;;;4867240;29;20873;-47
2023/12/17 10:47:56;;;;;;;16.27;15.17;;;14.60;1.00;;;;;;4867656;29;21207;-43
2023/12/17 10:50:26;;;;;;;15.57;14.47;;;15.00;1.00;;;;;;4868228;29;20443;-47
2023/12/17 10:52:52;;;;;;;15.30;14.30;;;15.20;1.00;;;;;;4867826;29;20740;-46
2023/12/17 10:55:19;;;;;;;15.80;14.80;;;15.40;1.00;;;;;;4863902;29;20440;-45
2023/12/17 10:58:05;;;;;;;16.07;14.97;;;15.50;1.00;;;;;;4868070;29;20431;-46
2023/12/17 11:00:33;;;;;;;15.57;14.50;;;15.60;1.00;;;;;;4859811;29;20443;-45
2023/12/17 11:03:04;;;;;;;16.17;14.97;;;15.80;1.00;;;;;;4861202;29;20480;-48
2023/12/17 11:05:29;;;;;;;16.73;15.40;;;15.70;1.00;;;;;;4867402;29;20417;-48
2023/12/17 11:07:55;;;;;;;16.90;15.57;;;15.60;1.00;;;;;;4865384;29;20970;-44
2023/12/17 11:10:21;;;;;;;15.40;14.30;;;15.70;1.00;;;;;;4867243;29;20502;-44
2023/12/17 11:12:47;;;;;;;15.67;14.67;;;15.60;1.00;;;;;;4867115;29;20218;-45
2023/12/17 11:15:14;;;;;;;15.80;14.70;;;15.00;1.00;;;;;;4867376;29;20197;-45
2023/12/17 11:17:40;;;;;;;16.03;14.93;;;14.70;1.00;;;;;;4881157;29;20822;-44
2023/12/17 11:20:06;;;;;;;15.30;14.30;;;14.40;1.00;;;;;;4866437;29;20425;-43
2023/12/17 11:22:36;;;;;;;15.60;14.40;;;13.90;1.00;;;;;;4864502;29;20452;-44
2023/12/17 11:25:03;;;;;;;14.77;13.73;;;14.00;1.00;;;;;;4863969;29;20783;-43
2023/12/17 11:27:31;;;;;;;16.17;15.07;;;13.90;1.00;;;;;;4862204;29;20485;-48
2023/12/17 11:29:56;;;;;;;15.10;14.10;;;14.40;1.00;;;;;;4865213;29;20439;-47
2023/12/17 11:32:27;;;;;;;15.73;14.53;;;14.80;1.00;;;;;;4865370;29;20469;-44
2023/12/17 11:34:53;;;;;;;15.50;14.53;;;15.10;1.00;;;;;;4865084;29;20589;-42
2023/12/17 11:37:20;;;;;;;15.80;14.60;;;15.30;1.00;;;;;;4866672;29;20796;-42
2023/12/17 11:39:47;;;;;;;16.30;15.20;;;15.60;1.00;;;;;;4867861;29;20424;-42
2023/12/17 11:42:14;;;;;;;16.73;15.43;;;15.40;1.00;;;;;;4864865;29;21266;-44
2023/12/17 11:44:48;;;;;;;16.40;15.10;;;15.50;1.00;;;;;;4866761;29;20508;-43
2023/12/17 11:47:15;;;;;;;16.07;14.77;;;15.00;1.00;;;;;;4866099;29;20467;-42
2023/12/17 11:49:42;;;;;;;15.93;14.77;;;14.60;1.00;;;;;;4869131;29;20429;-42
2023/12/17 11:52:14;;;;;;;16.70;15.40;;;14.60;1.00;;;;;;4866037;29;20479;-41
2023/12/17 11:54:43;;;;;;;17.03;15.53;;;14.20;1.00;;;;;;4865615;29;20532;-42
2023/12/17 11:57:23;;;;;;;15.40;14.40;;;14.30;1.00;;;;;;4866770;29;20462;-43
2023/12/17 11:59:50;;;;;;;14.80;13.87;;;14.30;1.00;;;;;;4866322;29;20465;-43
2023/12/17 12:02:20;;;;;;;14.90;13.90;;;14.50;1.00;;;;;;4865621;29;20435;-45
2023/12/17 12:04:46;;;;;;;16.13;14.93;;;14.40;1.00;;;;;;4864285;29;21002;-44
2023/12/17 12:07:17;;;;;;;14.70;13.70;;;13.90;1.00;;;;;;4866541;29;20487;-43
2023/12/17 12:09:44;;;;;;;15.87;14.77;;;13.60;1.00;;;;;;4862294;29;20935;-41
2023/12/17 12:12:19;;;;;;;14.97;13.77;;;13.40;1.00;;;;;;4863703;29;20708;-44
2023/12/17 12:14:47;;;;;;;16.27;15.07;;;13.70;1.00;;;;;;4864807;29;21014;-42
2023/12/17 12:17:42;;;;;;;16.10;15.00;;;13.50;1.00;;;;;;4866199;29;20436;-42
2023/12/17 12:20:09;;;;;;;16.70;15.50;;;13.60;1.00;;;;;;4865414;29;20598;-43
2023/12/17 12:22:35;;;;;;;15.40;14.40;;;13.40;1.00;;;;;;4865371;29;20437;-43
2023/12/17 12:25:02;;;;;;;15.03;13.87;;;12.90;1.00;;;;;;4865997;29;20551;-41
2023/12/17 12:27:27;;;;;;;15.97;14.70;;;13.10;1.00;;;;;;4865456;29;21465;-42
2023/12/17 12:29:55;;;;;;;14.90;13.87;;;13.20;1.00;;;;;;4869869;29;20453;-43
2023/12/17 12:32:34;;;;;;;14.90;14.00;;;13.10;1.00;;;;;;4861754;29;20251;-41
2023/12/17 12:35:00;;;;;;;14.10;13.10;;;13.10;1.00;;;;;;4864396;29;20484;-43
2023/12/17 12:37:37;;;;;;;15.67;14.30;;;13.10;1.00;;;;;;4862920;29;20875;-48